createdAt,value
2019-04-16T00:01:23.413Z,14.43
2019-04-16T00:04:17.835Z,14.43
2019-04-16T00:06:59.931Z,14.67
2019-04-16T00:09:35.964Z,14.70
2019-04-16T00:12:06.027Z,15.97
2019-04-16T00:14:36.112Z,15.33
2019-04-16T00:17:04.532Z,14.63
2019-04-16T00:19:34.751Z,14.90
2019-04-16T00:22:19.802Z,15.20
2019-04-16T00:24:48.904Z,15.83
2019-04-16T00:27:17.340Z,15.57
2019-04-16T00:29:45.778Z,15.23
2019-04-16T00:32:15.857Z,14.80
2019-04-16T00:34:44.778Z,15.07
2019-04-16T00:37:13.906Z,14.67
2019-04-16T00:39:42.345Z,14.23
2019-04-16T00:42:10.765Z,15.47
2019-04-16T00:44:39.270Z,15.00
2019-04-16T00:47:07.708Z,15.70
2019-04-16T00:49:37.886Z,17.07
2019-04-16T00:52:07.336Z,15.87
2019-04-16T00:54:36.084Z,14.50
2019-04-16T00:57:04.583Z,15.37
2019-04-16T00:59:33.002Z,16.23
2019-04-16T01:02:02.498Z,15.23
2019-04-16T01:04:30.915Z,15.70
2019-04-16T01:06:59.427Z,16.30
2019-04-16T01:09:27.926Z,16.83
2019-04-16T01:11:56.506Z,15.30
2019-04-16T01:14:26.886Z,16.87
2019-04-16T01:16:55.404Z,16.03
2019-04-16T01:19:23.874Z,15.13
2019-04-16T01:21:52.327Z,15.93
2019-04-16T01:24:21.168Z,16.03
2019-04-16T01:26:49.794Z,16.20
2019-04-16T01:29:18.241Z,16.33
2019-04-16T01:32:00.263Z,15.87
2019-04-16T01:34:33.251Z,16.20
2019-04-16T01:37:18.472Z,16.77
2019-04-16T01:39:51.239Z,14.80
2019-04-16T01:42:23.377Z,17.07
2019-04-16T01:44:49.838Z,16.57
2019-04-16T01:47:18.263Z,16.87
2019-04-16T01:49:46.673Z,16.50
2019-04-16T01:52:18.653Z,17.00
2019-04-16T01:54:45.267Z,16.30
2019-04-16T01:57:13.718Z,16.43
2019-04-16T01:59:47.900Z,15.23
2019-04-16T02:02:16.331Z,15.80
2019-04-16T02:04:44.770Z,15.87
2019-04-16T02:07:13.224Z,16.63
2019-04-16T02:09:41.658Z,16.67
2019-04-16T02:12:12.754Z,16.27
2019-04-16T02:14:40.251Z,17.03
2019-04-16T02:17:08.706Z,16.57
2019-04-16T02:19:37.129Z,17.67
2019-04-16T02:22:05.578Z,16.27
2019-04-16T02:24:34.013Z,17.23
2019-04-16T02:27:02.446Z,15.90
2019-04-16T02:29:30.895Z,16.93
2019-04-16T02:31:59.321Z,16.20
2019-04-16T02:34:27.780Z,16.43
2019-04-16T02:37:00.304Z,16.80
2019-04-16T02:39:46.632Z,15.80
2019-04-16T02:41:58.109Z,16.73
2019-04-16T02:44:26.794Z,16.53
2019-04-16T02:46:55.234Z,17.73
2019-04-16T02:49:25.172Z,17.57
2019-04-16T02:52:01.577Z,17.17
2019-04-16T02:54:43.495Z,15.73
2019-04-16T02:57:13.649Z,16.10
2019-04-16T02:59:47.372Z,17.33
2019-04-16T03:02:23.059Z,16.50
2019-04-16T03:05:02.656Z,18.30
2019-04-16T03:07:32.753Z,17.87
2019-04-16T03:10:02.079Z,17.87
2019-04-16T03:12:31.043Z,17.97
2019-04-16T03:15:01.208Z,17.50
2019-04-16T03:17:39.649Z,16.17
2019-04-16T03:20:15.481Z,16.67
2019-04-16T03:22:43.931Z,16.83
2019-04-16T03:25:14.119Z,16.77
2019-04-16T03:27:42.658Z,18.27
2019-04-16T03:30:11.440Z,17.50
2019-04-16T03:32:50.081Z,16.57
2019-04-16T03:35:18.825Z,17.40
2019-04-16T03:37:47.262Z,16.70
2019-04-16T03:40:18.270Z,17.67
2019-04-16T03:42:45.869Z,17.07
2019-04-16T03:45:14.877Z,17.43
2019-04-16T03:47:43.322Z,18.30
2019-04-16T03:50:12.064Z,16.73
2019-04-16T03:52:42.283Z,16.37
2019-04-16T03:55:10.787Z,17.27
2019-04-16T03:57:39.209Z,17.00
2019-04-16T04:00:12.504Z,17.03
2019-04-16T04:02:39.251Z,17.80
2019-04-16T04:05:07.847Z,17.50
2019-04-16T04:07:36.274Z,17.73
2019-04-16T04:10:06.783Z,18.60
2019-04-16T04:12:35.201Z,17.80
2019-04-16T04:15:04.902Z,17.93
2019-04-16T04:17:35.702Z,19.20
2019-04-16T04:20:06.379Z,18.77
2019-04-16T04:22:34.824Z,19.47
2019-04-16T04:25:04.385Z,19.87
2019-04-16T04:27:34.403Z,19.23
2019-04-16T04:30:03.572Z,18.67
2019-04-16T04:32:32.484Z,20.00
2019-04-16T04:35:02.191Z,20.33
2019-04-16T04:37:31.332Z,19.50
2019-04-16T04:40:00.439Z,19.67
2019-04-16T04:42:29.019Z,19.57
2019-04-16T04:44:57.550Z,19.23
2019-04-16T04:47:26.026Z,20.50
2019-04-16T04:49:54.478Z,18.73
2019-04-16T04:52:22.902Z,19.00
2019-04-16T04:54:53.968Z,20.33
2019-04-16T04:57:21.529Z,21.27
2019-04-16T04:59:50.042Z,21.40
2019-04-16T05:02:18.530Z,19.03
2019-04-16T05:04:49.688Z,21.17
2019-04-16T05:07:20.146Z,21.33
2019-04-16T05:09:48.713Z,21.47
2019-04-16T05:12:18.090Z,21.90
2019-04-16T05:14:48.984Z,22.63
2019-04-16T05:17:17.415Z,20.93
2019-04-16T05:19:45.874Z,27.70
2019-04-16T05:22:14.499Z,34.37
2019-04-16T05:24:43.014Z,32.13
2019-04-16T05:27:11.699Z,28.43
2019-04-16T05:29:40.136Z,21.13
2019-04-16T05:32:08.559Z,21.10
2019-04-16T05:34:37.528Z,21.20
2019-04-16T05:37:06.807Z,19.80
2019-04-16T05:39:35.242Z,21.07
2019-04-16T05:42:04.459Z,20.20
2019-04-16T05:44:34.073Z,19.83
2019-04-16T05:47:02.731Z,20.07
2019-04-16T05:49:31.167Z,20.07
2019-04-16T05:52:02.921Z,17.93
2019-04-16T05:54:44.500Z,19.43
2019-04-16T05:57:26.483Z,18.30
2019-04-16T05:59:54.374Z,18.20
2019-04-16T06:02:24.655Z,17.37
2019-04-16T06:04:55.670Z,17.63
2019-04-16T06:07:23.395Z,17.57
2019-04-16T06:09:51.824Z,18.17
2019-04-16T06:12:21.377Z,18.40
2019-04-16T06:14:54.343Z,20.97
2019-04-16T06:17:25.915Z,22.07
2019-04-16T06:20:01.837Z,18.87
2019-04-16T06:22:37.868Z,17.83
2019-04-16T06:25:26.394Z,18.50
2019-04-16T06:28:12.717Z,17.87
2019-04-16T06:30:52.141Z,16.67
2019-04-16T06:33:31.372Z,18.67
2019-04-16T06:36:17.616Z,18.27
2019-04-16T06:38:50.718Z,18.43
2019-04-16T06:41:40.922Z,17.73
2019-04-16T06:44:03.989Z,18.83
2019-04-16T06:46:49.685Z,18.10
2019-04-16T06:49:22.456Z,17.97
2019-04-16T06:52:08.857Z,17.50
2019-04-16T06:54:57.222Z,17.67
2019-04-16T06:57:43.861Z,16.67
2019-04-16T07:00:33.864Z,17.07
2019-04-16T07:03:18.938Z,18.07
2019-04-16T07:06:04.810Z,19.60
2019-04-16T07:08:41.943Z,16.90
2019-04-16T07:11:12.272Z,18.27
2019-04-16T07:13:42.187Z,18.23
2019-04-16T07:16:40.079Z,18.07
2019-04-16T07:19:11.298Z,17.77
2019-04-16T07:21:38.654Z,17.73
2019-04-16T07:24:08.066Z,18.30
2019-04-16T07:26:39.430Z,18.27
2019-04-16T07:29:08.415Z,17.83
2019-04-16T07:31:41.337Z,18.63
2019-04-16T07:34:11.386Z,17.83
2019-04-16T07:36:47.455Z,17.73
2019-04-16T07:39:28.770Z,17.73
2019-04-16T07:42:08.650Z,18.57
2019-04-16T07:44:33.289Z,17.80
2019-04-16T07:47:06.287Z,18.27
2019-04-16T07:49:36.361Z,18.17
2019-04-16T07:52:15.433Z,18.47
2019-04-16T07:55:01.454Z,19.33
2019-04-16T07:57:29.898Z,19.50
2019-04-16T07:59:58.318Z,18.53
2019-04-16T08:02:26.744Z,19.70
2019-04-16T08:04:55.181Z,19.67
2019-04-16T08:07:23.617Z,18.23
2019-04-16T08:09:52.047Z,18.77
2019-04-16T08:12:29.856Z,18.87
2019-04-16T08:14:50.654Z,18.80
2019-04-16T08:17:19.123Z,18.93
2019-04-16T08:19:49.065Z,18.40
2019-04-16T08:22:17.932Z,18.60
2019-04-16T08:24:51.161Z,18.73
2019-04-16T08:27:19.615Z,20.20
2019-04-16T08:29:48.074Z,18.63
2019-04-16T08:32:17.071Z,18.67
2019-04-16T08:34:45.630Z,19.40
2019-04-16T08:37:14.045Z,20.33
2019-04-16T08:39:42.489Z,18.60
2019-04-16T08:42:10.941Z,19.93
2019-04-16T08:44:39.375Z,19.30
2019-04-16T08:47:11.617Z,20.33
2019-04-16T08:49:37.997Z,20.23
2019-04-16T08:52:09.911Z,21.17
2019-04-16T08:54:36.607Z,19.57
2019-04-16T08:57:05.047Z,20.00
2019-04-16T08:59:33.735Z,20.30
2019-04-16T09:02:02.171Z,21.63
2019-04-16T09:04:34.312Z,20.77
2019-04-16T09:07:11.432Z,21.50
2019-04-16T09:09:47.926Z,20.77
2019-04-16T09:12:16.392Z,21.67
2019-04-16T09:14:45.642Z,21.33
2019-04-16T09:17:15.731Z,21.73
2019-04-16T09:19:45.845Z,20.80
2019-04-16T09:22:16.876Z,20.70
2019-04-16T09:24:48.820Z,21.20
2019-04-16T09:27:34.021Z,21.77
2019-04-16T09:30:16.976Z,20.53
2019-04-16T09:32:43.577Z,21.00
2019-04-16T09:35:18.685Z,20.10
2019-04-16T09:37:54.642Z,21.50
2019-04-16T09:40:27.722Z,20.83
2019-04-16T09:43:22.007Z,21.93
2019-04-16T09:45:50.441Z,21.07
2019-04-16T09:48:18.898Z,21.73
2019-04-16T09:50:47.960Z,19.50
2019-04-16T09:53:16.547Z,21.37
2019-04-16T09:55:47.529Z,20.50
2019-04-16T09:58:25.575Z,19.53
2019-04-16T10:01:04.189Z,19.20
2019-04-16T10:03:34.341Z,19.63
2019-04-16T10:06:05.478Z,19.10
2019-04-16T10:08:33.011Z,20.27
2019-04-16T10:11:05.796Z,17.95
2019-04-16T10:13:35.736Z,17.47
2019-04-16T10:16:01.881Z,17.30
2019-04-16T10:18:34.715Z,16.77
2019-04-16T10:21:00.567Z,16.87
2019-04-16T10:23:33.296Z,16.62
2019-04-16T10:26:02.106Z,17.45
2019-04-16T10:28:44.253Z,18.07
2019-04-16T10:31:25.006Z,16.85
2019-04-16T10:33:53.817Z,17.30
2019-04-16T10:36:22.386Z,17.57
2019-04-16T10:39:04.786Z,17.92
2019-04-16T10:41:37.619Z,15.70
2019-04-16T10:47:38.960Z,17.90
2019-04-16T10:50:09.371Z,17.80
2019-04-16T10:52:39.487Z,16.15
2019-04-16T10:55:18.551Z,15.18
2019-04-16T10:58:02.468Z,14.93
2019-04-16T11:00:49.331Z,15.85
2019-04-16T11:03:28.681Z,14.03
2019-04-16T11:06:04.236Z,15.25
2019-04-16T11:08:33.101Z,15.13
2019-04-16T11:11:01.753Z,15.10
2019-04-16T11:13:32.353Z,13.25
2019-04-16T11:16:02.786Z,12.45
2019-04-16T11:18:31.359Z,12.23
2019-04-16T11:21:00.385Z,11.90
2019-04-16T11:23:29.093Z,11.50
2019-04-16T11:25:57.726Z,11.60
2019-04-16T11:28:27.690Z,12.18
2019-04-16T11:30:57.831Z,10.25
2019-04-16T11:33:27.644Z,9.70
2019-04-16T11:35:56.561Z,10.98
2019-04-16T11:38:25.264Z,9.25
2019-04-16T11:40:54.055Z,9.50
2019-04-16T11:43:22.765Z,10.90
2019-04-16T11:45:51.521Z,9.73
2019-04-16T11:48:20.189Z,9.03
2019-04-16T11:50:48.898Z,8.55
2019-04-16T11:53:17.652Z,9.08
2019-04-16T11:55:46.131Z,8.10
2019-04-16T11:58:22.072Z,7.15
2019-04-16T12:00:52.231Z,7.10
2019-04-16T12:03:28.053Z,7.03
2019-04-16T12:06:03.890Z,7.05
2019-04-16T12:08:34.012Z,6.47
2019-04-16T12:11:13.498Z,6.60
2019-04-16T12:13:49.481Z,6.62
2019-04-16T12:16:24.305Z,6.05
2019-04-16T12:18:53.967Z,6.85
2019-04-16T12:21:33.256Z,6.15
2019-04-16T12:24:03.775Z,6.25
2019-04-16T12:26:50.606Z,6.70
2019-04-16T12:29:37.332Z,6.83
2019-04-16T12:32:16.185Z,8.15
2019-04-16T12:34:46.321Z,7.10
2019-04-16T12:37:37.401Z,6.92
2019-04-16T12:40:11.753Z,7.55
2019-04-16T12:42:44.832Z,6.58
2019-04-16T12:45:15.594Z,7.28
2019-04-16T12:47:50.065Z,8.23
2019-04-16T12:50:55.439Z,8.05
2019-04-16T12:53:26.726Z,7.25
2019-04-16T12:56:06.012Z,7.42
2019-04-16T12:58:31.113Z,7.17
2019-04-16T13:01:03.078Z,7.95
2019-04-16T13:03:38.378Z,7.28
2019-04-16T13:06:17.984Z,8.25
2019-04-16T13:08:53.414Z,6.83
2019-04-16T13:11:36.214Z,7.72
2019-04-16T13:14:17.676Z,7.60
2019-04-16T13:16:56.499Z,6.65
2019-04-16T13:19:32.319Z,7.12
2019-04-16T13:22:01.026Z,6.62
2019-04-16T13:24:34.114Z,6.20
2019-04-16T13:27:37.886Z,7.67
2019-04-16T13:30:11.468Z,7.20
2019-04-16T13:32:40.028Z,6.83
2019-04-16T13:35:09.079Z,7.33
2019-04-16T13:37:38.131Z,7.45
2019-04-16T13:40:15.210Z,6.95
2019-04-16T13:42:45.246Z,8.20
2019-04-16T13:45:26.209Z,7.50
2019-04-16T13:47:55.877Z,8.18
2019-04-16T13:50:39.826Z,7.25
2019-04-16T13:53:16.441Z,8.05
2019-04-16T13:55:49.465Z,7.45
2019-04-16T13:58:22.526Z,7.62
2019-04-16T14:00:54.120Z,8.45
2019-04-16T14:03:24.881Z,7.80
2019-04-16T14:05:53.473Z,8.95
2019-04-16T14:08:28.250Z,6.40
2019-04-16T14:10:57.045Z,7.12
2019-04-16T14:13:26.228Z,7.42
2019-04-16T14:15:56.722Z,7.60
2019-04-16T14:18:25.019Z,6.87
2019-04-16T14:20:54.800Z,7.85
2019-04-16T14:23:24.056Z,7.25
2019-04-16T14:25:52.674Z,6.08
2019-04-16T14:28:22.231Z,6.15
2019-04-16T14:30:50.950Z,6.45
2019-04-16T14:33:40.478Z,6.50
2019-04-16T14:36:11.818Z,7.72
2019-04-16T14:38:42.083Z,8.18
2019-04-16T14:44:56.248Z,8.68
2019-04-16T14:47:25.045Z,9.13
2019-04-16T14:49:53.708Z,7.97
2019-04-16T14:52:22.971Z,7.53
2019-04-16T15:01:00.313Z,13.83
2019-04-16T15:03:36.402Z,8.85
2019-04-16T15:06:12.051Z,7.85
2019-04-16T15:08:48.332Z,10.88
2019-04-16T15:11:30.988Z,8.23
2019-04-16T15:14:09.773Z,7.60
2019-04-16T15:16:43.857Z,7.00
2019-04-16T15:19:29.982Z,6.35
2019-04-16T15:22:16.428Z,6.03
2019-04-16T15:25:01.790Z,5.80
2019-04-16T15:27:39.202Z,6.17
2019-04-16T15:30:29.272Z,12.55
2019-04-16T15:36:40.445Z,8.28
2019-04-16T15:39:12.027Z,38.15
2019-04-16T15:41:45.432Z,8.60
2019-04-16T15:44:24.394Z,6.15
2019-04-16T15:47:06.599Z,5.53
2019-04-16T15:49:39.892Z,5.37
2019-04-16T15:52:12.846Z,6.17
2019-04-16T15:54:58.227Z,6.78
2019-04-16T15:57:44.743Z,7.03
2019-04-16T16:00:18.658Z,11.28
2019-04-16T16:03:02.430Z,12.65
2019-04-16T16:05:38.155Z,7.95
2019-04-16T16:08:16.924Z,7.60
2019-04-16T16:10:47.169Z,7.95
2019-04-16T16:13:15.771Z,8.55
2019-04-16T16:15:44.364Z,9.95
2019-04-16T16:18:12.958Z,8.98
2019-04-16T16:20:41.540Z,9.48
2019-04-16T16:26:02.775Z,8.35
2019-04-16T16:28:31.358Z,7.15
2019-04-16T16:31:01.817Z,6.35
2019-04-16T16:33:30.411Z,6.80
2019-04-16T16:36:00.265Z,5.87
2019-04-16T16:38:29.109Z,5.12
2019-04-16T16:40:58.416Z,4.83
2019-04-16T16:43:27.035Z,5.12
2019-04-16T16:46:03.411Z,5.08
2019-04-16T16:48:33.005Z,5.22
2019-04-16T16:51:02.392Z,5.25
2019-04-16T16:53:35.288Z,11.93
2019-04-16T16:56:13.591Z,5.22
2019-04-16T16:58:52.758Z,7.47
2019-04-16T17:01:34.942Z,4.83
2019-04-16T17:04:13.448Z,7.13
2019-04-16T17:07:36.872Z,8.10
2019-04-16T17:10:06.766Z,8.80
2019-04-16T17:12:35.320Z,4.87
2019-04-16T17:15:08.143Z,4.37
2019-04-16T17:17:35.188Z,5.65
2019-04-16T17:20:04.653Z,5.67
2019-04-16T17:22:33.341Z,5.10
2019-04-16T17:25:01.932Z,4.85
2019-04-16T17:27:30.529Z,6.75
2019-04-16T17:30:00.114Z,5.20
2019-04-16T17:32:28.783Z,4.78
2019-04-16T17:34:57.477Z,5.20
2019-04-16T17:37:28.694Z,5.58
2019-04-16T17:39:58.541Z,5.60
2019-04-16T17:42:29.475Z,4.80
2019-04-16T17:45:31.418Z,6.23
2019-04-16T17:48:01.714Z,4.50
2019-04-16T17:50:39.316Z,3.77
2019-04-16T17:53:21.452Z,3.90
2019-04-16T17:55:51.691Z,3.95
2019-04-16T17:58:28.915Z,3.65
2019-04-16T18:01:01.538Z,4.43
2019-04-16T18:03:37.658Z,3.80
2019-04-16T18:06:15.423Z,4.67
2019-04-16T18:09:00.777Z,4.13
2019-04-16T18:11:33.702Z,4.20
2019-04-16T18:14:10.740Z,3.87
2019-04-16T18:17:27.623Z,3.80
2019-04-16T18:20:14.156Z,3.50
2019-04-16T18:22:55.455Z,4.10
2019-04-16T18:25:28.534Z,4.27
2019-04-16T18:28:06.263Z,3.97
2019-04-16T18:30:39.414Z,3.90
2019-04-16T18:33:26.018Z,4.50
2019-04-16T18:35:56.238Z,4.47
2019-04-16T18:38:26.394Z,3.67
2019-04-16T18:41:13.410Z,3.87
2019-04-16T18:44:01.923Z,3.67
2019-04-16T18:46:32.136Z,4.53
2019-04-16T18:49:08.534Z,3.97
2019-04-16T18:51:37.125Z,4.30
2019-04-16T18:54:05.709Z,4.57
2019-04-16T18:56:36.566Z,4.20
2019-04-16T18:59:06.295Z,4.10
2019-04-16T19:01:36.466Z,3.90
2019-04-16T19:04:05.781Z,3.83
2019-04-16T19:06:34.332Z,4.07
2019-04-16T19:09:03.121Z,4.70
2019-04-16T19:11:31.689Z,4.60
2019-04-16T19:14:00.286Z,4.60
2019-04-16T19:16:28.912Z,4.10
2019-04-16T19:18:57.660Z,4.63
2019-04-16T19:21:26.547Z,4.40
2019-04-16T19:23:55.134Z,4.43
2019-04-16T19:26:24.338Z,4.90
2019-04-16T19:28:53.508Z,5.43
2019-04-16T19:31:23.116Z,5.93
2019-04-16T19:33:52.883Z,5.30
2019-04-16T19:36:24.919Z,5.67
2019-04-16T19:38:52.878Z,5.80
2019-04-16T19:41:24.408Z,4.90
2019-04-16T19:44:11.665Z,6.00
2019-04-16T19:50:10.880Z,4.87
2019-04-16T19:52:40.618Z,5.17
2019-04-16T19:55:12.664Z,5.07
2019-04-16T19:57:40.851Z,5.00
2019-04-16T20:03:37.704Z,4.90
2019-04-16T20:06:06.854Z,5.70
2019-04-16T20:12:04.611Z,5.73
2019-04-16T20:14:36.499Z,6.13
2019-04-16T20:17:24.042Z,5.43
2019-04-16T20:19:59.505Z,6.73
2019-04-16T20:22:29.135Z,5.83
2019-04-16T20:24:58.080Z,5.97
2019-04-16T20:27:27.007Z,8.43
2019-04-16T20:29:57.344Z,10.17
2019-04-16T20:32:27.361Z,9.10
2019-04-16T20:34:55.927Z,6.60
2019-04-16T20:37:25.194Z,7.60
2019-04-16T20:39:53.730Z,8.00
2019-04-16T20:42:22.310Z,7.70
2019-04-16T20:44:50.848Z,7.60
2019-04-16T20:47:19.434Z,7.03
2019-04-16T20:49:49.200Z,6.47
2019-04-16T20:52:18.304Z,7.40
2019-04-16T20:54:49.481Z,7.33
2019-04-16T20:57:18.878Z,8.50
2019-04-16T20:59:47.455Z,8.07
2019-04-16T21:02:16.795Z,7.20
2019-04-16T21:04:45.381Z,6.97
2019-04-16T21:07:15.068Z,7.33
2019-04-16T21:09:45.458Z,7.80
2019-04-16T21:12:14.060Z,7.27
2019-04-16T21:14:44.180Z,7.23
2019-04-16T21:17:13.356Z,7.43
2019-04-16T21:19:46.748Z,7.90
2019-04-16T21:25:45.975Z,8.67
2019-04-16T21:31:58.291Z,8.93
2019-04-16T21:34:31.322Z,8.97
2019-04-16T21:37:16.751Z,10.17
2019-04-16T21:39:51.316Z,8.93
2019-04-16T21:42:21.120Z,8.37
2019-04-16T21:44:50.430Z,9.67
2019-04-16T21:47:23.216Z,9.40
2019-04-16T21:49:49.351Z,10.83
2019-04-16T21:52:17.931Z,11.03
2019-04-16T21:54:48.255Z,10.40
2019-04-16T21:57:17.807Z,11.87
2019-04-16T21:59:46.462Z,12.80
2019-04-16T22:02:38.021Z,11.80
2019-04-16T22:05:06.656Z,12.37
2019-04-16T22:07:35.167Z,12.57
2019-04-16T22:10:04.307Z,13.20
2019-04-16T22:12:34.846Z,13.37
2019-04-16T22:15:04.495Z,13.87
2019-04-16T22:17:35.834Z,12.87
2019-04-16T22:20:06.238Z,12.97
2019-04-16T22:22:34.823Z,13.47
2019-04-16T22:25:05.332Z,12.90
2019-04-16T22:27:36.722Z,12.97
2019-04-16T22:30:06.551Z,13.87
2019-04-16T22:32:35.083Z,14.67
2019-04-16T22:35:04.604Z,13.20
2019-04-16T22:37:34.739Z,13.20
2019-04-16T22:40:23.502Z,13.97
2019-04-16T22:43:05.105Z,12.10
2019-04-16T22:45:32.936Z,12.37
2019-04-16T22:48:02.574Z,13.20
2019-04-16T22:54:12.396Z,11.53
2019-04-16T22:56:45.514Z,11.87
2019-04-16T22:59:16.035Z,11.10
2019-04-16T23:01:48.456Z,10.50
2019-04-16T23:04:17.036Z,10.37
2019-04-16T23:06:45.672Z,10.93
2019-04-16T23:09:17.173Z,10.50
2019-04-16T23:11:45.027Z,10.77
2019-04-16T23:14:15.131Z,10.27
2019-04-16T23:16:43.733Z,11.83
2019-04-16T23:19:13.467Z,11.30
2019-04-16T23:21:42.578Z,9.90
2019-04-16T23:24:13.367Z,9.63
2019-04-16T23:26:41.946Z,10.10
2019-04-16T23:29:12.226Z,10.97
2019-04-16T23:31:40.931Z,10.33
2019-04-16T23:34:09.757Z,11.23
2019-04-16T23:36:38.265Z,9.93
2019-04-16T23:39:07.904Z,10.63
2019-04-16T23:41:36.461Z,9.87
2019-04-16T23:44:25.821Z,9.90
2019-04-16T23:47:09.920Z,9.87
2019-04-16T23:49:47.336Z,9.67
2019-04-16T23:52:17.560Z,8.97
2019-04-16T23:54:56.295Z,8.70
2019-04-16T23:57:43.044Z,9.13
